sensor_id;sensor_type;location;lat;lon;timestamp;temperature;humidity
7494;DHT22;3788;49.902;8.590;2024-01-07T00:01:17;6.50;99.90
7494;DHT22;3788;49.902;8.590;2024-01-07T00:03:44;6.50;99.90
7494;DHT22;3788;49.902;8.590;2024-01-07T00:06:12;6.50;99.90
7494;DHT22;3788;49.902;8.590;2024-01-07T00:08:38;6.60;99.90
7494;DHT22;3788;49.902;8.590;2024-01-07T00:11:05;6.60;99.90
7494;DHT22;3788;49.902;8.590;2024-01-07T00:13:32;6.60;99.90
7494;DHT22;3788;49.902;8.590;2024-01-07T00:15:58;6.60;99.90
7494;DHT22;3788;49.902;8.590;2024-01-07T00:18:25;6.50;99.90
7494;DHT22;3788;49.902;8.590;2024-01-07T00:20:52;6.50;99.90
7494;DHT22;3788;49.902;8.590;2024-01-07T00:23:20;6.50;99.90
7494;DHT22;3788;49.902;8.590;2024-01-07T00:25:47;6.40;99.90
7494;DHT22;3788;49.902;8.590;2024-01-07T00:28:14;6.40;99.90
7494;DHT22;3788;49.902;8.590;2024-01-07T00:30:40;6.30;99.90
7494;DHT22;3788;49.902;8.590;2024-01-07T00:33:07;6.30;99.90
7494;DHT22;3788;49.902;8.590;2024-01-07T00:35:34;6.30;99.90
7494;DHT22;3788;49.902;8.590;2024-01-07T00:38:00;6.30;99.90
7494;DHT22;3788;49.902;8.590;2024-01-07T00:40:28;6.30;99.90
7494;DHT22;3788;49.902;8.590;2024-01-07T00:42:55;6.30;99.90
7494;DHT22;3788;49.902;8.590;2024-01-07T00:45:21;6.30;99.90
7494;DHT22;3788;49.902;8.590;2024-01-07T00:47:48;6.30;99.90
7494;DHT22;3788;49.902;8.590;2024-01-07T00:50:15;6.30;99.90
7494;DHT22;3788;49.902;8.590;2024-01-07T00:52:41;6.30;99.90
7494;DHT22;3788;49.902;8.590;2024-01-07T00:55:09;6.30;99.90
7494;DHT22;3788;49.902;8.590;2024-01-07T00:57:37;6.30;99.90
7494;DHT22;3788;49.902;8.590;2024-01-07T01:00:05;6.30;99.90
7494;DHT22;3788;49.902;8.590;2024-01-07T01:02:32;6.30;99.90
7494;DHT22;3788;49.902;8.590;2024-01-07T01:04:58;6.20;99.90
7494;DHT22;3788;49.902;8.590;2024-01-07T01:07:25;6.20;99.90
7494;DHT22;3788;49.902;8.590;2024-01-07T01:09:52;6.20;99.90
7494;DHT22;3788;49.902;8.590;2024-01-07T01:12:18;6.20;99.90
7494;DHT22;3788;49.902;8.590;2024-01-07T01:14:46;6.20;99.90
7494;DHT22;3788;49.902;8.590;2024-01-07T01:17:13;6.20;99.90
7494;DHT22;3788;49.902;8.590;2024-01-07T01:19:40;6.20;99.90
7494;DHT22;3788;49.902;8.590;2024-01-07T01:22:06;6.20;99.90
7494;DHT22;3788;49.902;8.590;2024-01-07T01:24:33;6.20;99.90
7494;DHT22;3788;49.902;8.590;2024-01-07T01:27:00;6.20;99.90
7494;DHT22;3788;49.902;8.590;2024-01-07T01:29:26;6.20;99.90
7494;DHT22;3788;49.902;8.590;2024-01-07T01:31:54;6.20;99.90
7494;DHT22;3788;49.902;8.590;2024-01-07T01:34:21;6.10;99.90
7494;DHT22;3788;49.902;8.590;2024-01-07T01:36:48;6.10;99.90
7494;DHT22;3788;49.902;8.590;2024-01-07T01:39:14;6.10;99.90
7494;DHT22;3788;49.902;8.590;2024-01-07T01:41:41;6.10;99.90
7494;DHT22;3788;49.902;8.590;2024-01-07T01:44:08;6.10;99.90
7494;DHT22;3788;49.902;8.590;2024-01-07T01:46:34;6.10;99.90
7494;DHT22;3788;49.902;8.590;2024-01-07T01:49:02;6.10;99.90
7494;DHT22;3788;49.902;8.590;2024-01-07T01:51:29;6.10;99.90
7494;DHT22;3788;49.902;8.590;2024-01-07T01:53:56;6.10;99.90
7494;DHT22;3788;49.902;8.590;2024-01-07T01:56:26;6.00;99.90
7494;DHT22;3788;49.902;8.590;2024-01-07T01:58:53;6.00;99.90
7494;DHT22;3788;49.902;8.590;2024-01-07T02:01:21;6.00;99.90
7494;DHT22;3788;49.902;8.590;2024-01-07T02:03:49;6.00;99.90
7494;DHT22;3788;49.902;8.590;2024-01-07T02:06:18;6.00;99.90
7494;DHT22;3788;49.902;8.590;2024-01-07T02:08:45;6.00;99.90
7494;DHT22;3788;49.902;8.590;2024-01-07T02:11:16;6.00;99.90
7494;DHT22;3788;49.902;8.590;2024-01-07T02:13:43;6.00;99.90
7494;DHT22;3788;49.902;8.590;2024-01-07T02:16:10;6.00;99.90
7494;DHT22;3788;49.902;8.590;2024-01-07T02:18:37;6.00;99.90
7494;DHT22;3788;49.902;8.590;2024-01-07T02:21:04;5.90;99.90
7494;DHT22;3788;49.902;8.590;2024-01-07T02:23:32;5.90;99.90
7494;DHT22;3788;49.902;8.590;2024-01-07T02:26:00;5.90;99.90
7494;DHT22;3788;49.902;8.590;2024-01-07T02:28:27;5.80;99.90
7494;DHT22;3788;49.902;8.590;2024-01-07T02:30:53;5.80;99.90
7494;DHT22;3788;49.902;8.590;2024-01-07T02:33:20;5.80;99.90
7494;DHT22;3788;49.902;8.590;2024-01-07T02:35:47;5.80;99.90
7494;DHT22;3788;49.902;8.590;2024-01-07T02:38:14;5.80;99.90
7494;DHT22;3788;49.902;8.590;2024-01-07T02:40:41;5.90;99.90
7494;DHT22;3788;49.902;8.590;2024-01-07T02:43:09;5.90;99.90
7494;DHT22;3788;49.902;8.590;2024-01-07T02:45:35;5.90;99.90
7494;DHT22;3788;49.902;8.590;2024-01-07T02:48:03;5.80;99.90
7494;DHT22;3788;49.902;8.590;2024-01-07T02:50:29;5.80;99.90
7494;DHT22;3788;49.902;8.590;2024-01-07T02:52:56;5.80;99.90
7494;DHT22;3788;49.902;8.590;2024-01-07T02:55:23;5.80;99.90
7494;DHT22;3788;49.902;8.590;2024-01-07T02:57:49;5.80;99.90
7494;DHT22;3788;49.902;8.590;2024-01-07T03:00:18;5.70;99.90
7494;DHT22;3788;49.902;8.590;2024-01-07T03:02:44;5.70;99.90
7494;DHT22;3788;49.902;8.590;2024-01-07T03:05:11;5.70;99.90
7494;DHT22;3788;49.902;8.590;2024-01-07T03:07:38;5.70;99.90
7494;DHT22;3788;49.902;8.590;2024-01-07T03:10:06;5.70;99.90
7494;DHT22;3788;49.902;8.590;2024-01-07T03:12:32;5.70;99.90
7494;DHT22;3788;49.902;8.590;2024-01-07T03:14:59;5.60;99.90
7494;DHT22;3788;49.902;8.590;2024-01-07T03:17:27;5.60;99.90
7494;DHT22;3788;49.902;8.590;2024-01-07T03:19:54;5.60;99.90
7494;DHT22;3788;49.902;8.590;2024-01-07T03:22:21;5.60;99.90
7494;DHT22;3788;49.902;8.590;2024-01-07T03:24:47;5.50;99.90
7494;DHT22;3788;49.902;8.590;2024-01-07T03:27:14;5.50;99.90
7494;DHT22;3788;49.902;8.590;2024-01-07T03:29:40;5.50;99.90
7494;DHT22;3788;49.902;8.590;2024-01-07T03:32:07;5.50;99.90
7494;DHT22;3788;49.902;8.590;2024-01-07T03:34:36;5.40;99.90
7494;DHT22;3788;49.902;8.590;2024-01-07T03:37:02;5.40;99.90
7494;DHT22;3788;49.902;8.590;2024-01-07T03:39:32;5.50;99.90
7494;DHT22;3788;49.902;8.590;2024-01-07T03:41:58;5.40;99.90
7494;DHT22;3788;49.902;8.590;2024-01-07T03:44:25;5.40;99.90
7494;DHT22;3788;49.902;8.590;2024-01-07T03:46:52;5.40;99.90
7494;DHT22;3788;49.902;8.590;2024-01-07T03:49:18;5.40;99.90
7494;DHT22;3788;49.902;8.590;2024-01-07T03:51:46;5.40;99.90
7494;DHT22;3788;49.902;8.590;2024-01-07T03:54:13;5.40;99.90
7494;DHT22;3788;49.902;8.590;2024-01-07T03:56:40;5.40;99.90
7494;DHT22;3788;49.902;8.590;2024-01-07T03:59:06;5.40;99.90
7494;DHT22;3788;49.902;8.590;2024-01-07T04:01:33;5.40;99.90
7494;DHT22;3788;49.902;8.590;2024-01-07T04:04:00;5.40;99.90
7494;DHT22;3788;49.902;8.590;2024-01-07T04:06:27;5.40;99.90
7494;DHT22;3788;49.902;8.590;2024-01-07T04:08:55;5.40;99.90
7494;DHT22;3788;49.902;8.590;2024-01-07T04:11:21;5.40;99.90
7494;DHT22;3788;49.902;8.590;2024-01-07T04:13:48;5.40;99.90
7494;DHT22;3788;49.902;8.590;2024-01-07T04:16:18;5.40;99.90
7494;DHT22;3788;49.902;8.590;2024-01-07T04:18:45;5.50;99.90
7494;DHT22;3788;49.902;8.590;2024-01-07T04:21:11;5.50;99.90
7494;DHT22;3788;49.902;8.590;2024-01-07T04:23:38;5.50;99.90
7494;DHT22;3788;49.902;8.590;2024-01-07T04:26:07;5.50;99.90
7494;DHT22;3788;49.902;8.590;2024-01-07T04:28:33;5.50;99.90
7494;DHT22;3788;49.902;8.590;2024-01-07T04:31:00;5.50;99.90
7494;DHT22;3788;49.902;8.590;2024-01-07T04:33:27;5.50;99.90
7494;DHT22;3788;49.902;8.590;2024-01-07T04:35:53;5.50;99.90
7494;DHT22;3788;49.902;8.590;2024-01-07T04:38:23;5.50;99.90
7494;DHT22;3788;49.902;8.590;2024-01-07T04:40:50;5.50;99.90
7494;DHT22;3788;49.902;8.590;2024-01-07T04:43:18;5.50;99.90
7494;DHT22;3788;49.902;8.590;2024-01-07T04:45:44;5.50;99.90
7494;DHT22;3788;49.902;8.590;2024-01-07T04:48:11;5.50;99.90
7494;DHT22;3788;49.902;8.590;2024-01-07T04:50:39;5.50;99.90
7494;DHT22;3788;49.902;8.590;2024-01-07T04:53:06;5.50;99.90
7494;DHT22;3788;49.902;8.590;2024-01-07T04:55:33;5.50;99.90
7494;DHT22;3788;49.902;8.590;2024-01-07T04:57:59;5.50;99.90
7494;DHT22;3788;49.902;8.590;2024-01-07T05:00:28;5.50;99.90
7494;DHT22;3788;49.902;8.590;2024-01-07T05:02:54;5.50;99.90
7494;DHT22;3788;49.902;8.590;2024-01-07T05:05:21;5.40;99.90
7494;DHT22;3788;49.902;8.590;2024-01-07T05:07:48;5.50;99.90
7494;DHT22;3788;49.902;8.590;2024-01-07T05:10:15;5.50;99.90
7494;DHT22;3788;49.902;8.590;2024-01-07T05:12:41;5.50;99.90
7494;DHT22;3788;49.902;8.590;2024-01-07T05:15:08;5.40;99.90
7494;DHT22;3788;49.902;8.590;2024-01-07T05:17:37;5.40;99.90
7494;DHT22;3788;49.902;8.590;2024-01-07T05:20:04;5.40;99.90
7494;DHT22;3788;49.902;8.590;2024-01-07T05:22:32;5.40;99.90
7494;DHT22;3788;49.902;8.590;2024-01-07T05:24:58;5.40;99.90
7494;DHT22;3788;49.902;8.590;2024-01-07T05:27:25;5.30;99.90
7494;DHT22;3788;49.902;8.590;2024-01-07T05:29:52;5.30;99.90
7494;DHT22;3788;49.902;8.590;2024-01-07T05:32:20;5.30;99.90
7494;DHT22;3788;49.902;8.590;2024-01-07T05:34:48;5.30;99.90
7494;DHT22;3788;49.902;8.590;2024-01-07T05:37:15;5.30;99.90
7494;DHT22;3788;49.902;8.590;2024-01-07T05:39:42;5.40;99.90
7494;DHT22;3788;49.902;8.590;2024-01-07T05:42:09;5.40;99.90
7494;DHT22;3788;49.902;8.590;2024-01-07T05:44:36;5.40;99.90
7494;DHT22;3788;49.902;8.590;2024-01-07T05:47:03;5.40;99.90
7494;DHT22;3788;49.902;8.590;2024-01-07T05:49:30;5.40;99.90
7494;DHT22;3788;49.902;8.590;2024-01-07T05:51:58;5.40;99.90
7494;DHT22;3788;49.902;8.590;2024-01-07T05:54:24;5.40;99.90
7494;DHT22;3788;49.902;8.590;2024-01-07T05:56:51;5.40;99.90
7494;DHT22;3788;49.902;8.590;2024-01-07T05:59:18;5.40;99.90
7494;DHT22;3788;49.902;8.590;2024-01-07T06:01:45;5.40;99.90
7494;DHT22;3788;49.902;8.590;2024-01-07T06:04:11;5.40;99.90
7494;DHT22;3788;49.902;8.590;2024-01-07T06:06:38;5.40;99.90
7494;DHT22;3788;49.902;8.590;2024-01-07T06:09:06;5.40;99.90
7494;DHT22;3788;49.902;8.590;2024-01-07T06:11:33;5.40;99.90
7494;DHT22;3788;49.902;8.590;2024-01-07T06:13:59;5.40;99.90
7494;DHT22;3788;49.902;8.590;2024-01-07T06:16:26;5.40;99.90
7494;DHT22;3788;49.902;8.590;2024-01-07T06:18:53;5.30;99.90
7494;DHT22;3788;49.902;8.590;2024-01-07T06:21:19;5.30;99.90
7494;DHT22;3788;49.902;8.590;2024-01-07T06:23:46;5.30;99.90
7494;DHT22;3788;49.902;8.590;2024-01-07T06:26:15;5.20;99.90
7494;DHT22;3788;49.902;8.590;2024-01-07T06:28:41;5.20;99.90
7494;DHT22;3788;49.902;8.590;2024-01-07T06:31:08;5.20;99.90
7494;DHT22;3788;49.902;8.590;2024-01-07T06:33:35;5.20;99.90
7494;DHT22;3788;49.902;8.590;2024-01-07T06:36:01;5.20;99.90
7494;DHT22;3788;49.902;8.590;2024-01-07T06:38:28;5.20;99.90
7494;DHT22;3788;49.902;8.590;2024-01-07T06:40:55;5.20;99.90
7494;DHT22;3788;49.902;8.590;2024-01-07T06:43:27;5.20;99.90
7494;DHT22;3788;49.902;8.590;2024-01-07T06:45:54;5.20;99.90
7494;DHT22;3788;49.902;8.590;2024-01-07T06:48:21;5.20;99.90
7494;DHT22;3788;49.902;8.590;2024-01-07T06:50:47;5.20;99.90
7494;DHT22;3788;49.902;8.590;2024-01-07T06:53:14;5.20;99.90
7494;DHT22;3788;49.902;8.590;2024-01-07T06:55:42;5.20;99.90
7494;DHT22;3788;49.902;8.590;2024-01-07T06:58:08;5.10;99.90
7494;DHT22;3788;49.902;8.590;2024-01-07T07:00:36;5.10;99.90
7494;DHT22;3788;49.902;8.590;2024-01-07T07:03:03;5.10;99.90
7494;DHT22;3788;49.902;8.590;2024-01-07T07:05:30;5.10;99.90
7494;DHT22;3788;49.902;8.590;2024-01-07T07:07:57;5.10;99.90
7494;DHT22;3788;49.902;8.590;2024-01-07T07:10:24;5.00;99.90
7494;DHT22;3788;49.902;8.590;2024-01-07T07:12:51;5.00;99.90
7494;DHT22;3788;49.902;8.590;2024-01-07T07:15:17;5.00;99.90
7494;DHT22;3788;49.902;8.590;2024-01-07T07:17:45;5.00;99.90
7494;DHT22;3788;49.902;8.590;2024-01-07T07:20:12;4.90;99.90
7494;DHT22;3788;49.902;8.590;2024-01-07T07:22:39;4.90;99.90
7494;DHT22;3788;49.902;8.590;2024-01-07T07:25:06;4.90;99.90
7494;DHT22;3788;49.902;8.590;2024-01-07T07:27:33;4.90;99.90
7494;DHT22;3788;49.902;8.590;2024-01-07T07:29:59;4.80;99.90
7494;DHT22;3788;49.902;8.590;2024-01-07T07:32:26;4.70;99.90
7494;DHT22;3788;49.902;8.590;2024-01-07T07:34:54;4.70;99.90
7494;DHT22;3788;49.902;8.590;2024-01-07T07:37:21;4.70;99.90
7494;DHT22;3788;49.902;8.590;2024-01-07T07:39:48;4.70;99.90
7494;DHT22;3788;49.902;8.590;2024-01-07T07:42:14;4.70;99.90
7494;DHT22;3788;49.902;8.590;2024-01-07T07:44:41;4.60;99.90
7494;DHT22;3788;49.902;8.590;2024-01-07T07:47:09;4.60;99.90
7494;DHT22;3788;49.902;8.590;2024-01-07T07:49:37;4.50;99.90
7494;DHT22;3788;49.902;8.590;2024-01-07T07:52:07;4.50;99.90
7494;DHT22;3788;49.902;8.590;2024-01-07T07:54:33;4.50;99.90
7494;DHT22;3788;49.902;8.590;2024-01-07T07:57:00;4.40;99.90
7494;DHT22;3788;49.902;8.590;2024-01-07T07:59:27;4.40;99.90
7494;DHT22;3788;49.902;8.590;2024-01-07T08:01:54;4.40;99.90
7494;DHT22;3788;49.902;8.590;2024-01-07T08:04:21;4.40;99.90
7494;DHT22;3788;49.902;8.590;2024-01-07T08:06:48;4.40;99.90
7494;DHT22;3788;49.902;8.590;2024-01-07T08:09:16;4.30;99.90
7494;DHT22;3788;49.902;8.590;2024-01-07T08:11:42;4.30;99.90
7494;DHT22;3788;49.902;8.590;2024-01-07T08:14:09;4.30;99.90
7494;DHT22;3788;49.902;8.590;2024-01-07T08:16:36;4.30;99.90
7494;DHT22;3788;49.902;8.590;2024-01-07T08:19:03;4.30;99.90
7494;DHT22;3788;49.902;8.590;2024-01-07T08:21:29;4.30;99.90
7494;DHT22;3788;49.902;8.590;2024-01-07T08:23:56;4.20;99.90
7494;DHT22;3788;49.902;8.590;2024-01-07T08:26:24;4.30;99.90
7494;DHT22;3788;49.902;8.590;2024-01-07T08:28:51;4.20;99.90
7494;DHT22;3788;49.902;8.590;2024-01-07T08:31:17;4.10;99.90
7494;DHT22;3788;49.902;8.590;2024-01-07T08:33:44;4.10;99.90
7494;DHT22;3788;49.902;8.590;2024-01-07T08:36:11;4.10;99.90
7494;DHT22;3788;49.902;8.590;2024-01-07T08:38:38;4.10;99.90
7494;DHT22;3788;49.902;8.590;2024-01-07T08:41:04;4.10;99.90
7494;DHT22;3788;49.902;8.590;2024-01-07T08:43:32;4.00;99.90
7494;DHT22;3788;49.902;8.590;2024-01-07T08:45:59;4.00;99.90
7494;DHT22;3788;49.902;8.590;2024-01-07T08:48:25;4.00;99.90
7494;DHT22;3788;49.902;8.590;2024-01-07T08:50:52;4.00;99.90
7494;DHT22;3788;49.902;8.590;2024-01-07T08:53:19;4.00;99.90
7494;DHT22;3788;49.902;8.590;2024-01-07T08:55:47;4.00;99.60
7494;DHT22;3788;49.902;8.590;2024-01-07T08:58:14;4.00;99.10
7494;DHT22;3788;49.902;8.590;2024-01-07T09:00:42;4.00;99.00
7494;DHT22;3788;49.902;8.590;2024-01-07T09:03:09;4.00;98.60
7494;DHT22;3788;49.902;8.590;2024-01-07T09:05:36;4.00;98.70
7494;DHT22;3788;49.902;8.590;2024-01-07T09:08:03;4.00;99.00
7494;DHT22;3788;49.902;8.590;2024-01-07T09:10:31;4.00;98.70
7494;DHT22;3788;49.902;8.590;2024-01-07T09:12:59;4.00;98.60
7494;DHT22;3788;49.902;8.590;2024-01-07T09:15:26;4.00;98.40
7494;DHT22;3788;49.902;8.590;2024-01-07T09:17:54;4.00;98.70
7494;DHT22;3788;49.902;8.590;2024-01-07T09:20:20;4.00;98.60
7494;DHT22;3788;49.902;8.590;2024-01-07T09:22:47;4.00;98.30
7494;DHT22;3788;49.902;8.590;2024-01-07T09:25:14;4.00;97.80
7494;DHT22;3788;49.902;8.590;2024-01-07T09:27:40;3.90;98.00
7494;DHT22;3788;49.902;8.590;2024-01-07T09:30:09;3.90;97.90
7494;DHT22;3788;49.902;8.590;2024-01-07T09:32:36;3.90;97.90
7494;DHT22;3788;49.902;8.590;2024-01-07T09:35:05;3.90;97.70
7494;DHT22;3788;49.902;8.590;2024-01-07T09:37:32;3.90;98.20
7494;DHT22;3788;49.902;8.590;2024-01-07T09:39:58;3.90;98.50
7494;DHT22;3788;49.902;8.590;2024-01-07T09:42:25;3.90;98.60
7494;DHT22;3788;49.902;8.590;2024-01-07T09:44:52;3.80;98.40
7494;DHT22;3788;49.902;8.590;2024-01-07T09:47:19;3.90;98.60
7494;DHT22;3788;49.902;8.590;2024-01-07T09:49:46;3.90;98.50
7494;DHT22;3788;49.902;8.590;2024-01-07T09:52:14;3.90;98.50
7494;DHT22;3788;49.902;8.590;2024-01-07T09:54:44;3.90;98.60
7494;DHT22;3788;49.902;8.590;2024-01-07T09:57:15;3.90;98.10
7494;DHT22;3788;49.902;8.590;2024-01-07T09:59:41;3.90;97.60
7494;DHT22;3788;49.902;8.590;2024-01-07T10:02:08;3.90;97.80
7494;DHT22;3788;49.902;8.590;2024-01-07T10:04:35;3.90;97.70
7494;DHT22;3788;49.902;8.590;2024-01-07T10:07:05;3.90;97.30
7494;DHT22;3788;49.902;8.590;2024-01-07T10:09:34;3.90;97.70
7494;DHT22;3788;49.902;8.590;2024-01-07T10:12:02;4.00;97.80
7494;DHT22;3788;49.902;8.590;2024-01-07T10:14:29;4.00;97.50
7494;DHT22;3788;49.902;8.590;2024-01-07T10:16:56;4.00;97.30
7494;DHT22;3788;49.902;8.590;2024-01-07T10:19:24;4.00;96.70
7494;DHT22;3788;49.902;8.590;2024-01-07T10:22:00;4.00;97.00
7494;DHT22;3788;49.902;8.590;2024-01-07T10:24:36;4.00;97.30
7494;DHT22;3788;49.902;8.590;2024-01-07T10:27:07;4.00;97.80
7494;DHT22;3788;49.902;8.590;2024-01-07T10:29:47;4.00;97.10
7494;DHT22;3788;49.902;8.590;2024-01-07T10:32:17;4.10;96.90
7494;DHT22;3788;49.902;8.590;2024-01-07T10:34:46;4.00;96.70
7494;DHT22;3788;49.902;8.590;2024-01-07T10:37:13;4.00;96.80
7494;DHT22;3788;49.902;8.590;2024-01-07T10:39:41;4.00;96.90
7494;DHT22;3788;49.902;8.590;2024-01-07T10:42:08;4.00;96.90
7494;DHT22;3788;49.902;8.590;2024-01-07T10:44:36;4.00;96.90
7494;DHT22;3788;49.902;8.590;2024-01-07T10:47:06;4.00;97.30
7494;DHT22;3788;49.902;8.590;2024-01-07T10:49:35;4.10;97.30
7494;DHT22;3788;49.902;8.590;2024-01-07T10:52:05;4.20;97.20
7494;DHT22;3788;49.902;8.590;2024-01-07T10:54:33;4.30;97.20
7494;DHT22;3788;49.902;8.590;2024-01-07T10:57:12;4.30;96.90
7494;DHT22;3788;49.902;8.590;2024-01-07T10:59:40;4.30;97.10
7494;DHT22;3788;49.902;8.590;2024-01-07T11:02:08;4.30;97.00
7494;DHT22;3788;49.902;8.590;2024-01-07T11:04:43;4.40;97.30
7494;DHT22;3788;49.902;8.590;2024-01-07T11:07:29;4.40;97.20
7494;DHT22;3788;49.902;8.590;2024-01-07T11:10:08;4.40;97.00
7494;DHT22;3788;49.902;8.590;2024-01-07T11:12:37;4.40;96.60
7494;DHT22;3788;49.902;8.590;2024-01-07T11:15:04;4.40;96.70
7494;DHT22;3788;49.902;8.590;2024-01-07T11:17:41;4.40;96.40
7494;DHT22;3788;49.902;8.590;2024-01-07T11:20:16;4.30;96.60
7494;DHT22;3788;49.902;8.590;2024-01-07T11:22:44;4.30;96.80
7494;DHT22;3788;49.902;8.590;2024-01-07T11:25:28;4.30;96.50
7494;DHT22;3788;49.902;8.590;2024-01-07T11:27:59;4.20;96.70
7494;DHT22;3788;49.902;8.590;2024-01-07T11:30:26;4.20;96.80
7494;DHT22;3788;49.902;8.590;2024-01-07T11:32:57;4.10;96.20
7494;DHT22;3788;49.902;8.590;2024-01-07T11:35:53;4.10;96.50
7494;DHT22;3788;49.902;8.590;2024-01-07T11:38:20;4.10;96.80
7494;DHT22;3788;49.902;8.590;2024-01-07T11:40:47;4.10;97.00
7494;DHT22;3788;49.902;8.590;2024-01-07T11:43:16;4.10;96.90
7494;DHT22;3788;49.902;8.590;2024-01-07T11:45:44;4.10;96.80
7494;DHT22;3788;49.902;8.590;2024-01-07T11:48:10;4.10;96.60
7494;DHT22;3788;49.902;8.590;2024-01-07T11:50:37;4.10;96.10
7494;DHT22;3788;49.902;8.590;2024-01-07T11:53:04;4.00;95.90
7494;DHT22;3788;49.902;8.590;2024-01-07T11:55:31;3.90;95.30
7494;DHT22;3788;49.902;8.590;2024-01-07T11:58:01;3.90;95.50
7494;DHT22;3788;49.902;8.590;2024-01-07T12:00:31;3.90;95.40
7494;DHT22;3788;49.902;8.590;2024-01-07T12:02:58;3.90;94.90
7494;DHT22;3788;49.902;8.590;2024-01-07T12:05:27;3.80;94.70
7494;DHT22;3788;49.902;8.590;2024-01-07T12:07:54;3.80;94.80
7494;DHT22;3788;49.902;8.590;2024-01-07T12:10:22;3.80;94.70
7494;DHT22;3788;49.902;8.590;2024-01-07T12:12:49;3.80;94.60
7494;DHT22;3788;49.902;8.590;2024-01-07T12:15:17;3.80;94.70
7494;DHT22;3788;49.902;8.590;2024-01-07T12:17:55;3.80;94.40
7494;DHT22;3788;49.902;8.590;2024-01-07T12:20:23;3.80;94.30
7494;DHT22;3788;49.902;8.590;2024-01-07T12:22:49;3.70;94.60
7494;DHT22;3788;49.902;8.590;2024-01-07T12:25:21;3.70;94.60
7494;DHT22;3788;49.902;8.590;2024-01-07T12:27:48;3.70;94.90
7494;DHT22;3788;49.902;8.590;2024-01-07T12:30:18;3.70;95.00
7494;DHT22;3788;49.902;8.590;2024-01-07T12:32:45;3.80;95.30
7494;DHT22;3788;49.902;8.590;2024-01-07T12:35:13;3.80;95.40
7494;DHT22;3788;49.902;8.590;2024-01-07T12:37:40;3.80;95.60
7494;DHT22;3788;49.902;8.590;2024-01-07T12:40:09;3.80;95.70
7494;DHT22;3788;49.902;8.590;2024-01-07T12:42:37;3.70;95.80
7494;DHT22;3788;49.902;8.590;2024-01-07T12:45:06;3.80;96.00
7494;DHT22;3788;49.902;8.590;2024-01-07T12:47:32;3.80;95.90
7494;DHT22;3788;49.902;8.590;2024-01-07T12:50:00;3.70;95.00
7494;DHT22;3788;49.902;8.590;2024-01-07T12:52:28;3.70;95.00
7494;DHT22;3788;49.902;8.590;2024-01-07T12:54:55;3.70;95.10
7494;DHT22;3788;49.902;8.590;2024-01-07T12:57:22;3.70;95.30
7494;DHT22;3788;49.902;8.590;2024-01-07T12:59:49;3.70;95.30
7494;DHT22;3788;49.902;8.590;2024-01-07T13:02:15;3.70;95.50
7494;DHT22;3788;49.902;8.590;2024-01-07T13:04:42;3.70;95.80
7494;DHT22;3788;49.902;8.590;2024-01-07T13:07:09;3.70;95.40
7494;DHT22;3788;49.902;8.590;2024-01-07T13:09:37;3.70;95.30
7494;DHT22;3788;49.902;8.590;2024-01-07T13:12:04;3.70;95.40
7494;DHT22;3788;49.902;8.590;2024-01-07T13:14:31;3.60;95.40
7494;DHT22;3788;49.902;8.590;2024-01-07T13:16:57;3.60;95.40
7494;DHT22;3788;49.902;8.590;2024-01-07T13:19:24;3.60;94.80
7494;DHT22;3788;49.902;8.590;2024-01-07T13:21:52;3.60;94.70
7494;DHT22;3788;49.902;8.590;2024-01-07T13:24:20;3.60;94.90
7494;DHT22;3788;49.902;8.590;2024-01-07T13:26:49;3.60;95.10
7494;DHT22;3788;49.902;8.590;2024-01-07T13:29:15;3.70;95.20
7494;DHT22;3788;49.902;8.590;2024-01-07T13:31:42;3.60;94.70
7494;DHT22;3788;49.902;8.590;2024-01-07T13:34:09;3.60;95.20
7494;DHT22;3788;49.902;8.590;2024-01-07T13:36:35;3.60;94.30
7494;DHT22;3788;49.902;8.590;2024-01-07T13:39:03;3.60;94.20
7494;DHT22;3788;49.902;8.590;2024-01-07T13:41:32;3.70;94.10
7494;DHT22;3788;49.902;8.590;2024-01-07T13:44:01;3.60;93.80
7494;DHT22;3788;49.902;8.590;2024-01-07T13:46:28;3.60;94.10
7494;DHT22;3788;49.902;8.590;2024-01-07T13:48:55;3.60;94.10
7494;DHT22;3788;49.902;8.590;2024-01-07T13:51:21;3.50;93.00
7494;DHT22;3788;49.902;8.590;2024-01-07T13:53:48;3.50;92.80
7494;DHT22;3788;49.902;8.590;2024-01-07T13:56:15;3.40;92.90
7494;DHT22;3788;49.902;8.590;2024-01-07T13:58:42;3.30;93.10
7494;DHT22;3788;49.902;8.590;2024-01-07T14:01:14;3.30;92.90
7494;DHT22;3788;49.902;8.590;2024-01-07T14:03:41;3.30;93.10
7494;DHT22;3788;49.902;8.590;2024-01-07T14:06:08;3.20;92.70
7494;DHT22;3788;49.902;8.590;2024-01-07T14:08:36;3.10;92.80
7494;DHT22;3788;49.902;8.590;2024-01-07T14:11:03;3.10;92.90
7494;DHT22;3788;49.902;8.590;2024-01-07T14:13:32;3.00;93.20
7494;DHT22;3788;49.902;8.590;2024-01-07T14:15:59;3.00;93.30
7494;DHT22;3788;49.902;8.590;2024-01-07T14:18:27;2.90;93.40
7494;DHT22;3788;49.902;8.590;2024-01-07T14:20:54;2.90;93.40
7494;DHT22;3788;49.902;8.590;2024-01-07T14:23:20;2.90;93.80
7494;DHT22;3788;49.902;8.590;2024-01-07T14:25:47;2.90;94.00
7494;DHT22;3788;49.902;8.590;2024-01-07T14:28:14;2.90;94.10
7494;DHT22;3788;49.902;8.590;2024-01-07T14:30:40;2.80;94.10
7494;DHT22;3788;49.902;8.590;2024-01-07T14:33:07;2.80;94.10
7494;DHT22;3788;49.902;8.590;2024-01-07T14:35:35;2.70;94.00
7494;DHT22;3788;49.902;8.590;2024-01-07T14:38:02;2.60;94.30
7494;DHT22;3788;49.902;8.590;2024-01-07T14:40:29;2.60;94.50
7494;DHT22;3788;49.902;8.590;2024-01-07T14:42:56;2.60;94.50
7494;DHT22;3788;49.902;8.590;2024-01-07T14:45:23;2.60;94.70
7494;DHT22;3788;49.902;8.590;2024-01-07T14:47:50;2.50;94.80
7494;DHT22;3788;49.902;8.590;2024-01-07T14:50:17;2.50;94.80
7494;DHT22;3788;49.902;8.590;2024-01-07T14:52:45;2.40;94.90
7494;DHT22;3788;49.902;8.590;2024-01-07T14:55:13;2.40;94.90
7494;DHT22;3788;49.902;8.590;2024-01-07T14:57:40;2.40;94.90
7494;DHT22;3788;49.902;8.590;2024-01-07T15:00:07;2.30;94.80
7494;DHT22;3788;49.902;8.590;2024-01-07T15:02:34;2.30;94.80
7494;DHT22;3788;49.902;8.590;2024-01-07T15:05:01;2.30;94.80
7494;DHT22;3788;49.902;8.590;2024-01-07T15:07:28;2.20;94.60
7494;DHT22;3788;49.902;8.590;2024-01-07T15:09:56;2.20;94.40
7494;DHT22;3788;49.902;8.590;2024-01-07T15:12:25;2.10;94.30
7494;DHT22;3788;49.902;8.590;2024-01-07T15:15:00;2.10;94.10
7494;DHT22;3788;49.902;8.590;2024-01-07T15:17:29;2.10;94.10
7494;DHT22;3788;49.902;8.590;2024-01-07T15:19:55;2.00;94.00
7494;DHT22;3788;49.902;8.590;2024-01-07T15:22:22;2.00;94.20
7494;DHT22;3788;49.902;8.590;2024-01-07T15:24:48;2.00;93.90
7494;DHT22;3788;49.902;8.590;2024-01-07T15:27:16;1.90;93.90
7494;DHT22;3788;49.902;8.590;2024-01-07T15:29:43;1.90;93.90
7494;DHT22;3788;49.902;8.590;2024-01-07T15:32:10;1.90;93.50
7494;DHT22;3788;49.902;8.590;2024-01-07T15:34:37;1.90;93.60
7494;DHT22;3788;49.902;8.590;2024-01-07T15:37:03;1.90;93.60
7494;DHT22;3788;49.902;8.590;2024-01-07T15:39:30;1.80;93.70
7494;DHT22;3788;49.902;8.590;2024-01-07T15:41:57;1.80;93.80
7494;DHT22;3788;49.902;8.590;2024-01-07T15:44:25;1.80;93.90
7494;DHT22;3788;49.902;8.590;2024-01-07T15:46:52;1.80;94.00
7494;DHT22;3788;49.902;8.590;2024-01-07T15:49:19;1.70;93.70
7494;DHT22;3788;49.902;8.590;2024-01-07T15:51:46;1.70;93.80
7494;DHT22;3788;49.902;8.590;2024-01-07T15:54:13;1.70;93.80
7494;DHT22;3788;49.902;8.590;2024-01-07T15:56:39;1.70;93.70
7494;DHT22;3788;49.902;8.590;2024-01-07T15:59:06;1.70;93.50
7494;DHT22;3788;49.902;8.590;2024-01-07T16:01:34;1.60;92.80
7494;DHT22;3788;49.902;8.590;2024-01-07T16:04:00;1.50;92.40
7494;DHT22;3788;49.902;8.590;2024-01-07T16:06:27;1.50;92.00
7494;DHT22;3788;49.902;8.590;2024-01-07T16:08:54;1.50;91.80
7494;DHT22;3788;49.902;8.590;2024-01-07T16:11:21;1.40;91.10
7494;DHT22;3788;49.902;8.590;2024-01-07T16:13:48;1.30;91.10
7494;DHT22;3788;49.902;8.590;2024-01-07T16:16:14;1.30;90.90
7494;DHT22;3788;49.902;8.590;2024-01-07T16:18:42;1.20;90.60